createdAt,value
2023-01-19T00:00:52.846Z,31.80
2023-01-19T00:03:20.450Z,32.00
2023-01-19T00:05:47.749Z,35.20
2023-01-19T00:08:15.178Z,38.80
2023-01-19T00:10:44.267Z,32.50
2023-01-19T00:13:11.761Z,30.90
2023-01-19T00:15:39.518Z,36.60
2023-01-19T00:18:07.640Z,35.90
2023-01-19T00:20:36.847Z,33.90
2023-01-19T00:23:05.040Z,28.60
2023-01-19T00:25:32.266Z,31.50
2023-01-19T00:28:01.525Z,32.50
2023-01-19T00:30:29.297Z,32.90
2023-01-19T00:32:56.893Z,35.10
2023-01-19T00:35:24.179Z,32.60
2023-01-19T00:37:51.537Z,33.70
2023-01-19T00:40:18.771Z,32.90
2023-01-19T00:42:46.133Z,38.10
2023-01-19T00:45:15.343Z,35.20
2023-01-19T00:47:42.678Z,33.40
2023-01-19T00:50:13.774Z,34.10
2023-01-19T00:52:41.161Z,34.40
2023-01-19T00:55:09.123Z,35.50
2023-01-19T00:57:36.439Z,41.50
2023-01-19T01:00:06.647Z,31.10
2023-01-19T01:02:34.540Z,37.60
2023-01-19T01:05:03.186Z,35.40
2023-01-19T01:07:30.822Z,32.30
2023-01-19T01:09:58.355Z,33.30
2023-01-19T01:12:26.458Z,37.00
2023-01-19T01:14:53.942Z,38.20
2023-01-19T01:17:25.236Z,33.00
2023-01-19T01:19:53.048Z,35.80
2023-01-19T01:22:20.993Z,34.90
2023-01-19T01:25:40.328Z,39.50
2023-01-19T01:28:09.490Z,32.80
2023-01-19T01:30:41.282Z,39.70
2023-01-19T01:33:08.902Z,34.40
2023-01-19T01:35:36.308Z,37.60
2023-01-19T01:38:04.168Z,32.70
2023-01-19T01:40:31.418Z,38.30
2023-01-19T01:42:58.904Z,35.00
2023-01-19T01:45:38.592Z,37.70
2023-01-19T01:48:05.723Z,36.90
2023-01-19T01:50:33.567Z,35.60
2023-01-19T01:53:08.125Z,38.00
2023-01-19T01:55:39.446Z,35.40
2023-01-19T01:58:06.750Z,32.70
2023-01-19T02:00:53.952Z,41.50
2023-01-19T02:03:22.926Z,31.90
2023-01-19T02:05:50.294Z,35.80
2023-01-19T02:08:44.233Z,35.40
2023-01-19T02:11:30.153Z,41.50
2023-01-19T02:13:57.350Z,37.50
2023-01-19T02:16:25.036Z,30.80
2023-01-19T02:18:52.754Z,38.60
2023-01-19T02:21:43.252Z,36.00
2023-01-19T02:24:11.205Z,31.90
2023-01-19T02:26:40.436Z,34.50
2023-01-19T02:29:12.128Z,32.90
2023-01-19T02:31:39.661Z,33.30
2023-01-19T02:34:08.410Z,36.00
2023-01-19T02:37:03.676Z,35.30
2023-01-19T02:39:39.558Z,32.50
2023-01-19T02:42:10.152Z,35.10
2023-01-19T02:44:37.399Z,38.50
2023-01-19T02:47:04.749Z,32.70
2023-01-19T02:49:32.227Z,31.50
2023-01-19T02:51:59.404Z,39.30
2023-01-19T02:54:51.744Z,31.00
2023-01-19T02:57:45.453Z,34.00
2023-01-19T03:00:18.772Z,34.50
2023-01-19T03:03:02.209Z,42.70
2023-01-19T03:08:46.597Z,35.50
2023-01-19T03:11:14.139Z,34.60
2023-01-19T03:13:57.963Z,35.40
2023-01-19T03:16:48.885Z,40.50
2023-01-19T03:19:20.367Z,42.90
2023-01-19T03:21:49.687Z,35.30
2023-01-19T03:24:17.617Z,35.70
2023-01-19T03:26:47.942Z,37.60
2023-01-19T03:29:15.414Z,36.20
2023-01-19T03:31:44.438Z,40.60
2023-01-19T03:34:12.236Z,35.30
2023-01-19T03:36:45.290Z,34.60
2023-01-19T03:39:12.781Z,38.70
2023-01-19T03:41:39.998Z,45.00
2023-01-19T03:44:08.016Z,38.00
2023-01-19T03:46:35.929Z,41.00
2023-01-19T03:49:03.494Z,45.50
2023-01-19T03:51:30.899Z,50.20
2023-01-19T03:53:58.334Z,38.50
2023-01-19T03:56:26.110Z,40.00
2023-01-19T03:58:55.058Z,37.00
2023-01-19T04:01:24.016Z,32.60
2023-01-19T04:03:52.157Z,29.90
2023-01-19T04:06:20.401Z,34.50
2023-01-19T04:08:49.193Z,31.60
2023-01-19T04:11:16.309Z,33.80
2023-01-19T04:13:43.722Z,31.30
2023-01-19T04:16:11.235Z,27.10
2023-01-19T04:18:39.226Z,31.30
2023-01-19T04:21:07.812Z,37.70
2023-01-19T04:23:35.100Z,33.90
2023-01-19T04:26:06.183Z,30.30
2023-01-19T04:28:33.733Z,36.60
2023-01-19T04:31:01.251Z,31.60
2023-01-19T04:33:28.672Z,32.90
2023-01-19T04:35:56.325Z,29.10
2023-01-19T04:38:24.646Z,27.60
2023-01-19T04:40:52.992Z,30.80
2023-01-19T04:43:20.793Z,27.30
2023-01-19T04:45:48.826Z,30.00
2023-01-19T04:48:16.174Z,27.40
2023-01-19T04:50:43.365Z,30.00
2023-01-19T04:53:11.193Z,27.90
2023-01-19T04:55:39.371Z,26.80
2023-01-19T04:58:06.829Z,23.30
2023-01-19T05:00:34.141Z,25.10
2023-01-19T05:03:02.058Z,26.80
2023-01-19T05:05:29.875Z,29.30
2023-01-19T05:07:57.186Z,26.40
2023-01-19T05:10:24.836Z,31.80
2023-01-19T05:12:52.136Z,26.40
2023-01-19T05:15:19.517Z,28.80
2023-01-19T05:17:46.738Z,25.10
2023-01-19T05:20:16.228Z,29.80
2023-01-19T05:22:49.655Z,27.70
2023-01-19T05:25:16.961Z,28.00
2023-01-19T05:27:45.022Z,33.10
2023-01-19T05:30:13.710Z,31.20
2023-01-19T05:32:41.181Z,28.30
2023-01-19T05:35:09.868Z,24.40
2023-01-19T05:37:37.093Z,26.20
2023-01-19T05:40:04.923Z,28.00
2023-01-19T05:42:32.957Z,24.90
2023-01-19T05:45:00.599Z,34.90
2023-01-19T05:47:30.201Z,26.00
2023-01-19T05:49:57.802Z,34.20
2023-01-19T05:52:25.280Z,32.00
2023-01-19T05:54:52.615Z,31.20
2023-01-19T05:57:19.985Z,29.90
2023-01-19T05:59:47.543Z,27.30
2023-01-19T06:02:15.392Z,25.60
2023-01-19T06:04:43.962Z,26.90
2023-01-19T06:07:11.500Z,30.10
2023-01-19T06:09:38.818Z,23.60
2023-01-19T06:12:06.681Z,24.10
2023-01-19T06:14:36.787Z,29.80
2023-01-19T06:17:08.084Z,24.00
2023-01-19T06:19:35.303Z,25.80
2023-01-19T06:22:03.112Z,30.50
2023-01-19T06:24:30.923Z,27.80
2023-01-19T06:26:58.135Z,26.30
2023-01-19T06:29:27.045Z,23.80
2023-01-19T06:31:55.293Z,21.30
2023-01-19T06:34:22.649Z,24.30
2023-01-19T06:36:51.007Z,30.40
2023-01-19T06:39:18.211Z,21.60
2023-01-19T06:41:45.395Z,24.10
2023-01-19T06:44:12.619Z,23.20
2023-01-19T06:46:39.911Z,26.60
2023-01-19T06:49:07.891Z,32.30
2023-01-19T06:51:35.305Z,29.80
2023-01-19T06:54:02.739Z,22.60
2023-01-19T06:56:30.005Z,30.20
2023-01-19T06:58:57.279Z,28.70
2023-01-19T07:01:24.578Z,26.40
2023-01-19T07:03:52.163Z,29.80
2023-01-19T07:06:19.800Z,26.30
2023-01-19T07:08:47.014Z,25.50
2023-01-19T07:11:25.108Z,33.20
2023-01-19T07:13:57.642Z,23.60
2023-01-19T07:16:25.384Z,23.40
2023-01-19T07:18:52.671Z,23.00
2023-01-19T07:21:19.950Z,23.40
2023-01-19T07:23:51.266Z,18.60
2023-01-19T07:26:22.045Z,24.40
2023-01-19T07:28:49.477Z,27.50
2023-01-19T07:31:17.014Z,25.00
2023-01-19T07:33:44.988Z,22.10
2023-01-19T07:36:12.292Z,19.40
2023-01-19T07:38:41.851Z,19.60
2023-01-19T07:41:09.844Z,22.10
2023-01-19T07:43:37.069Z,22.10
2023-01-19T07:46:05.485Z,24.80
2023-01-19T07:48:33.182Z,21.60
2023-01-19T07:51:01.684Z,27.40
2023-01-19T07:53:28.965Z,21.30
2023-01-19T07:55:56.877Z,24.50
2023-01-19T07:58:25.380Z,26.00
2023-01-19T08:00:53.550Z,17.50
2023-01-19T08:03:21.016Z,19.80
2023-01-19T08:05:57.194Z,24.10
2023-01-19T08:08:24.572Z,23.00
2023-01-19T08:10:52.375Z,20.10
2023-01-19T08:13:19.929Z,20.00
2023-01-19T08:15:53.644Z,25.10
2023-01-19T08:18:21.304Z,22.80
2023-01-19T08:20:48.667Z,26.80
2023-01-19T08:23:15.980Z,27.80
2023-01-19T08:25:44.806Z,25.20
2023-01-19T08:28:16.304Z,24.80
2023-01-19T08:30:45.241Z,38.80
2023-01-19T08:33:13.009Z,24.50
2023-01-19T08:35:41.849Z,18.50
2023-01-19T08:38:09.753Z,23.50
2023-01-19T08:40:39.761Z,19.10
2023-01-19T08:43:09.297Z,19.30
2023-01-19T08:45:49.034Z,20.50
2023-01-19T08:48:17.977Z,19.70
2023-01-19T08:50:48.671Z,19.50
2023-01-19T08:53:16.017Z,23.70
2023-01-19T08:55:43.375Z,18.90
2023-01-19T08:58:10.727Z,18.70
2023-01-19T09:00:38.848Z,22.50
2023-01-19T09:03:07.611Z,21.70
2023-01-19T09:05:37.557Z,19.50
2023-01-19T09:08:06.844Z,19.50
2023-01-19T09:10:36.291Z,17.30
2023-01-19T09:13:05.259Z,20.30
2023-01-19T09:15:34.179Z,23.30
2023-01-19T09:18:02.495Z,21.10
2023-01-19T09:20:31.428Z,21.30
2023-01-19T09:22:58.685Z,20.90
2023-01-19T09:25:25.937Z,19.60
2023-01-19T09:27:53.385Z,17.50
2023-01-19T09:30:21.017Z,20.20
2023-01-19T09:32:48.273Z,19.90
2023-01-19T09:35:15.567Z,25.90
2023-01-19T09:37:47.080Z,16.30
2023-01-19T09:40:14.935Z,21.10
2023-01-19T09:42:46.518Z,22.30
2023-01-19T09:45:31.311Z,19.00
2023-01-19T09:47:59.109Z,20.70
2023-01-19T09:50:28.321Z,19.90
2023-01-19T09:53:02.863Z,16.40
2023-01-19T09:55:30.292Z,16.60
2023-01-19T09:57:57.505Z,15.50
2023-01-19T10:00:24.840Z,19.00
2023-01-19T10:03:13.441Z,24.20
2023-01-19T10:05:45.047Z,17.20
2023-01-19T10:08:34.185Z,18.90
2023-01-19T10:11:01.367Z,23.10
2023-01-19T10:13:41.401Z,23.20
2023-01-19T10:16:34.040Z,22.70
2023-01-19T10:19:03.571Z,25.70
2023-01-19T10:21:35.679Z,41.10
2023-01-19T10:24:24.379Z,25.70
2023-01-19T10:26:53.798Z,25.80
2023-01-19T10:29:36.763Z,20.70
2023-01-19T10:32:20.113Z,26.90
2023-01-19T10:34:49.326Z,27.10
2023-01-19T10:37:37.324Z,37.20
2023-01-19T10:40:11.258Z,22.50
2023-01-19T10:42:40.252Z,27.60
2023-01-19T10:45:17.637Z,31.30
2023-01-19T10:47:45.800Z,29.50
2023-01-19T10:50:23.852Z,23.50
2023-01-19T10:52:52.266Z,36.20
2023-01-19T10:55:34.537Z,32.50
2023-01-19T10:58:01.780Z,36.50
2023-01-19T11:00:32.055Z,20.00
2023-01-19T11:03:00.101Z,29.20
2023-01-19T11:05:29.442Z,29.10
2023-01-19T11:07:56.901Z,24.00
2023-01-19T11:10:28.921Z,17.90
2023-01-19T11:13:12.816Z,21.30
2023-01-19T11:15:45.395Z,31.60
2023-01-19T11:18:24.258Z,16.40
2023-01-19T11:20:53.104Z,21.40
2023-01-19T11:23:27.515Z,27.20
2023-01-19T11:25:56.930Z,23.50
2023-01-19T11:28:32.647Z,31.50
2023-01-19T11:31:02.044Z,27.20
2023-01-19T11:33:37.270Z,33.50
2023-01-19T11:36:06.965Z,24.90
2023-01-19T11:38:40.613Z,28.50
2023-01-19T11:41:07.915Z,26.40
2023-01-19T11:43:48.371Z,33.20
2023-01-19T11:46:16.638Z,21.30
2023-01-19T11:48:47.651Z,25.10
2023-01-19T11:51:16.604Z,27.10
2023-01-19T11:53:44.290Z,20.20
2023-01-19T11:56:12.339Z,19.20
2023-01-19T11:58:41.306Z,28.20
2023-01-19T12:01:18.823Z,19.20
2023-01-19T12:04:13.404Z,17.30
2023-01-19T12:06:44.763Z,18.80
2023-01-19T12:09:15.660Z,15.60
2023-01-19T12:12:04.453Z,18.70
2023-01-19T12:15:01.103Z,18.70
2023-01-19T12:17:34.371Z,18.10
2023-01-19T12:20:18.733Z,26.90
2023-01-19T12:22:50.873Z,31.70
2023-01-19T12:25:38.866Z,30.00
2023-01-19T12:28:07.289Z,27.20
2023-01-19T12:30:35.293Z,29.00
2023-01-19T12:33:38.547Z,24.90
2023-01-19T12:36:21.123Z,23.40
2023-01-19T12:39:10.879Z,23.30
2023-01-19T12:41:41.223Z,22.90
2023-01-19T12:44:16.555Z,31.10
2023-01-19T12:46:46.323Z,33.40
2023-01-19T12:49:37.967Z,28.50
2023-01-19T12:52:31.488Z,29.20
2023-01-19T12:55:08.033Z,31.70
2023-01-19T12:57:39.505Z,26.10
2023-01-19T13:00:39.794Z,31.10
2023-01-19T13:03:16.609Z,27.20
2023-01-19T13:05:43.825Z,38.70
2023-01-19T13:08:12.856Z,35.10
2023-01-19T13:11:13.245Z,37.30
2023-01-19T13:13:46.728Z,33.30
2023-01-19T13:16:20.416Z,29.50
2023-01-19T13:18:52.236Z,37.90
2023-01-19T13:21:26.965Z,26.90
2023-01-19T13:23:58.690Z,23.00
2023-01-19T13:26:36.037Z,31.30
2023-01-19T13:29:07.494Z,38.50
2023-01-19T13:31:38.860Z,32.90
2023-01-19T13:34:11.930Z,27.80
2023-01-19T13:36:41.525Z,32.70
2023-01-19T13:39:29.480Z,26.20
2023-01-19T13:42:01.510Z,27.50
2023-01-19T13:44:31.245Z,24.70
2023-01-19T13:46:59.986Z,28.50
2023-01-19T13:49:35.741Z,23.30
2023-01-19T13:52:14.032Z,22.70
2023-01-19T13:54:50.679Z,18.60
2023-01-19T13:57:26.035Z,20.10
2023-01-19T14:00:12.223Z,27.80
2023-01-19T14:02:42.844Z,25.20
2023-01-19T14:05:24.058Z,26.70
2023-01-19T14:08:13.086Z,25.40
2023-01-19T14:10:42.047Z,24.20
2023-01-19T14:13:15.060Z,21.50
2023-01-19T14:15:42.501Z,22.10
2023-01-19T14:18:18.978Z,28.20
2023-01-19T14:21:15.746Z,23.80
2023-01-19T14:23:44.464Z,22.00
2023-01-19T14:26:49.823Z,22.40
2023-01-19T14:29:24.771Z,24.20
2023-01-19T14:32:04.410Z,20.60
2023-01-19T14:35:05.980Z,18.80
2023-01-19T14:37:35.366Z,16.10
2023-01-19T14:40:13.347Z,17.10
2023-01-19T14:42:44.733Z,19.20
2023-01-19T14:45:21.528Z,19.70
2023-01-19T14:47:55.337Z,17.60
2023-01-19T14:50:31.491Z,15.40
2023-01-19T14:53:08.774Z,16.10
2023-01-19T14:55:45.800Z,18.40
2023-01-19T14:58:14.671Z,19.30
2023-01-19T15:00:42.289Z,14.50
2023-01-19T15:03:12.404Z,19.30
2023-01-19T15:05:40.174Z,17.10
2023-01-19T15:08:07.326Z,18.20
2023-01-19T15:10:35.432Z,21.40
2023-01-19T15:13:02.518Z,19.20
2023-01-19T15:15:31.843Z,16.30
2023-01-19T15:18:03.537Z,19.40
2023-01-19T15:20:30.900Z,18.90
2023-01-19T15:22:58.176Z,19.20
2023-01-19T15:25:28.258Z,17.60
2023-01-19T15:27:58.188Z,16.60
2023-01-19T15:30:33.822Z,16.90
2023-01-19T15:33:02.147Z,22.60
2023-01-19T15:35:29.938Z,23.80
2023-01-19T15:37:57.296Z,23.00
2023-01-19T15:40:24.477Z,18.90
2023-01-19T15:42:51.718Z,19.50
2023-01-19T15:45:27.724Z,20.40
2023-01-19T15:47:55.013Z,21.00
2023-01-19T15:50:22.222Z,21.00
2023-01-19T15:52:49.547Z,22.90
2023-01-19T15:55:16.988Z,22.30
2023-01-19T15:57:44.209Z,18.70
2023-01-19T16:00:11.930Z,19.00
2023-01-19T16:02:39.329Z,19.50
2023-01-19T16:05:07.382Z,19.00
2023-01-19T16:07:35.167Z,17.90
2023-01-19T16:10:02.508Z,25.30
2023-01-19T16:12:29.729Z,19.50
2023-01-19T16:14:56.933Z,22.40
2023-01-19T16:17:24.324Z,18.30
2023-01-19T16:19:51.835Z,19.90
2023-01-19T16:22:19.065Z,22.60
2023-01-19T16:24:46.265Z,22.90
2023-01-19T16:27:13.652Z,19.30
2023-01-19T16:29:41.029Z,21.40
2023-01-19T16:32:08.722Z,23.00
2023-01-19T16:34:36.031Z,23.50
2023-01-19T16:37:03.224Z,20.80
2023-01-19T16:39:30.419Z,24.10
2023-01-19T16:41:57.616Z,23.90
2023-01-19T16:44:24.833Z,22.10
2023-01-19T16:46:52.083Z,26.20
2023-01-19T16:49:21.489Z,19.50
2023-01-19T16:51:48.806Z,22.30
2023-01-19T16:54:20.664Z,24.40
2023-01-19T16:56:48.261Z,24.50
2023-01-19T16:59:16.415Z,20.70
2023-01-19T17:01:45.154Z,19.80
2023-01-19T17:04:13.103Z,22.00
2023-01-19T17:06:40.235Z,19.50
2023-01-19T17:09:09.640Z,28.70
2023-01-19T17:11:36.939Z,22.20
2023-01-19T17:14:06.059Z,21.40
2023-01-19T17:16:34.142Z,21.20
2023-01-19T17:19:02.951Z,24.20
2023-01-19T17:21:30.697Z,25.10
2023-01-19T17:23:58.548Z,24.30
2023-01-19T17:26:28.449Z,21.90
2023-01-19T17:29:02.692Z,19.50
2023-01-19T17:31:30.723Z,24.70
2023-01-19T17:33:58.688Z,21.00
2023-01-19T17:36:27.732Z,26.00
2023-01-19T17:38:56.435Z,22.40
2023-01-19T17:41:25.765Z,24.40
2023-01-19T17:43:53.094Z,30.20
2023-01-19T17:46:21.855Z,26.30
2023-01-19T17:48:59.551Z,20.20
2023-01-19T17:51:26.998Z,28.50
2023-01-19T17:53:54.486Z,23.80
2023-01-19T17:56:23.643Z,26.60
2023-01-19T17:58:50.918Z,23.90
2023-01-19T18:01:25.599Z,25.00
2023-01-19T18:03:53.225Z,23.50
2023-01-19T18:06:20.466Z,26.00
2023-01-19T18:08:48.177Z,24.50
2023-01-19T18:11:16.847Z,22.10
2023-01-19T18:13:45.919Z,22.80
2023-01-19T18:16:18.447Z,24.60
2023-01-19T18:18:45.662Z,24.30
2023-01-19T18:21:14.179Z,23.20
2023-01-19T18:23:43.635Z,25.90
2023-01-19T18:26:12.828Z,24.90
2023-01-19T18:28:40.129Z,21.60
2023-01-19T18:31:11.489Z,23.60
2023-01-19T18:33:39.359Z,22.50
2023-01-19T18:36:08.728Z,23.80
2023-01-19T18:38:36.559Z,28.20
2023-01-19T18:41:14.617Z,19.80
2023-01-19T18:43:42.711Z,22.60
2023-01-19T18:46:09.961Z,25.90
2023-01-19T18:48:38.059Z,22.30
2023-01-19T18:51:09.417Z,22.10
2023-01-19T18:53:38.111Z,24.30
2023-01-19T18:56:06.783Z,20.50
2023-01-19T18:58:34.798Z,21.30
2023-01-19T19:01:02.108Z,23.70
2023-01-19T19:03:29.690Z,25.20
2023-01-19T19:05:57.112Z,25.50
2023-01-19T19:08:24.414Z,22.20
2023-01-19T19:10:51.659Z,30.50
2023-01-19T19:13:22.060Z,23.80
2023-01-19T19:15:49.320Z,32.60
2023-01-19T19:18:16.701Z,31.10
2023-01-19T19:20:43.970Z,28.30
2023-01-19T19:23:11.575Z,27.30
2023-01-19T19:25:38.929Z,38.10
2023-01-19T19:28:06.662Z,36.80
2023-01-19T19:30:35.896Z,31.40
2023-01-19T19:33:03.340Z,31.40
2023-01-19T19:35:30.603Z,33.60
2023-01-19T19:37:57.991Z,39.10
2023-01-19T19:40:26.184Z,39.50
2023-01-19T19:42:58.610Z,41.90
2023-01-19T19:45:26.470Z,39.00
2023-01-19T19:47:53.816Z,36.20
2023-01-19T19:50:21.014Z,38.30
2023-01-19T19:52:48.294Z,37.70
2023-01-19T19:55:15.807Z,43.20
2023-01-19T19:57:43.007Z,30.70
2023-01-19T20:00:11.384Z,31.00
2023-01-19T20:02:38.786Z,30.40
2023-01-19T20:05:08.629Z,28.80
2023-01-19T20:07:35.909Z,36.30
2023-01-19T20:10:03.343Z,29.90
2023-01-19T20:12:30.560Z,31.20
2023-01-19T20:14:58.102Z,28.90
2023-01-19T20:17:25.754Z,32.90
2023-01-19T20:19:53.258Z,28.60
2023-01-19T20:22:21.101Z,33.70
2023-01-19T20:24:48.791Z,33.80
2023-01-19T20:27:16.000Z,36.30
2023-01-19T20:29:43.491Z,34.50
2023-01-19T20:32:13.445Z,42.10
2023-01-19T20:34:41.399Z,38.20
2023-01-19T20:37:09.628Z,45.30
2023-01-19T20:39:37.487Z,47.50
2023-01-19T20:42:05.771Z,40.60
2023-01-19T20:44:33.032Z,46.90
2023-01-19T20:47:00.927Z,42.30
2023-01-19T20:49:28.154Z,49.90
2023-01-19T20:51:55.461Z,46.20
2023-01-19T20:54:26.454Z,49.80
2023-01-19T20:56:53.863Z,43.00
2023-01-19T20:59:21.195Z,51.00
2023-01-19T21:01:48.949Z,51.90
2023-01-19T21:04:17.482Z,51.00
2023-01-19T21:06:44.697Z,44.00
2023-01-19T21:09:12.161Z,39.70
2023-01-19T21:11:39.603Z,38.30
2023-01-19T21:14:07.434Z,37.10
2023-01-19T21:16:35.239Z,39.90
2023-01-19T21:19:02.712Z,38.10
2023-01-19T21:21:31.656Z,42.50
2023-01-19T21:24:00.386Z,37.50
2023-01-19T21:26:30.115Z,37.00
2023-01-19T21:28:58.365Z,36.30
2023-01-19T21:31:27.574Z,38.80
2023-01-19T21:33:55.371Z,33.60
2023-01-19T21:36:23.094Z,39.90
2023-01-19T21:38:55.820Z,40.90
2023-01-19T21:41:23.107Z,40.80
2023-01-19T21:43:50.737Z,46.90
2023-01-19T21:46:19.817Z,32.00
2023-01-19T21:48:47.360Z,35.00
2023-01-19T21:51:14.840Z,40.30
2023-01-19T21:53:42.120Z,33.90
2023-01-19T21:56:10.158Z,40.80
2023-01-19T21:58:37.429Z,39.50
2023-01-19T22:01:07.084Z,39.10
2023-01-19T22:03:34.407Z,31.10
2023-01-19T22:06:07.029Z,38.80
2023-01-19T22:08:34.584Z,34.90
2023-01-19T22:11:05.523Z,37.40
2023-01-19T22:13:33.601Z,30.80
2023-01-19T22:16:02.021Z,30.40
2023-01-19T22:18:29.468Z,36.30
2023-01-19T22:20:56.825Z,31.30
2023-01-19T22:23:24.099Z,37.70
2023-01-19T22:25:51.428Z,35.10
2023-01-19T22:28:18.675Z,34.10
2023-01-19T22:30:46.163Z,36.20
2023-01-19T22:33:13.471Z,41.10
2023-01-19T22:35:40.873Z,37.30
2023-01-19T22:38:08.087Z,37.10
2023-01-19T22:40:35.273Z,34.20
2023-01-19T22:43:02.487Z,38.80
2023-01-19T22:45:29.951Z,37.60
2023-01-19T22:47:57.153Z,36.60
2023-01-19T22:50:24.339Z,41.30
2023-01-19T22:52:55.934Z,43.20
2023-01-19T22:55:23.160Z,38.70
2023-01-19T22:57:50.782Z,37.90
2023-01-19T23:00:18.706Z,47.10
2023-01-19T23:02:45.903Z,32.40
2023-01-19T23:05:13.512Z,35.60
2023-01-19T23:07:41.025Z,38.90
2023-01-19T23:10:09.611Z,37.50
2023-01-19T23:12:36.797Z,38.50
2023-01-19T23:15:04.303Z,34.00
2023-01-19T23:17:31.571Z,44.20
2023-01-19T23:19:58.747Z,38.50
2023-01-19T23:22:26.006Z,39.30
2023-01-19T23:24:53.186Z,49.80
2023-01-19T23:27:20.386Z,44.20
2023-01-19T23:29:47.586Z,38.60
2023-01-19T23:32:14.822Z,37.30
2023-01-19T23:34:41.997Z,33.30
2023-01-19T23:37:09.081Z,36.00
2023-01-19T23:39:36.533Z,42.10
2023-01-19T23:42:05.344Z,38.10
2023-01-19T23:44:32.811Z,35.70
2023-01-19T23:47:00.100Z,39.40
2023-01-19T23:49:27.591Z,34.60
2023-01-19T23:51:54.767Z,33.20
2023-01-19T23:54:21.975Z,34.90
2023-01-19T23:56:49.498Z,38.90
2023-01-19T23:59:16.851Z,37.40
